createdAt,value
2022-11-27T00:00:12.047Z,102102.25
2022-11-27T00:00:36.662Z,102094.34
2022-11-27T00:00:59.841Z,102090.81
2022-11-27T00:01:23.197Z,102094.34
2022-11-27T00:01:44.899Z,102088.16
2022-11-27T00:02:11.493Z,102089.91
2022-11-27T00:02:36.536Z,102096.97
2022-11-27T00:03:02.460Z,102092.53
2022-11-27T00:03:28.842Z,102096.13
2022-11-27T00:03:53.353Z,102092.56
2022-11-27T00:04:17.071Z,102097.88
2022-11-27T00:04:43.100Z,102096.97
2022-11-27T00:05:07.109Z,102094.34
2022-11-27T00:05:28.693Z,102092.56
2022-11-27T00:05:55.433Z,102087.28
2022-11-27T00:06:18.974Z,102087.28
2022-11-27T00:06:42.055Z,102083.72
2022-11-27T00:07:03.615Z,102087.28
2022-11-27T00:07:25.237Z,102086.41
2022-11-27T00:07:47.301Z,102089.03
2022-11-27T00:08:09.003Z,102087.22
2022-11-27T00:08:33.033Z,102072.22
2022-11-27T00:08:56.077Z,102089.91
2022-11-27T00:09:17.734Z,102085.44
2022-11-27T00:09:40.688Z,102083.69
2022-11-27T00:10:02.569Z,102084.59
2022-11-27T00:10:24.301Z,102075.75
2022-11-27T00:10:45.925Z,102081.06
2022-11-27T00:11:09.666Z,102081.94
2022-11-27T00:11:32.308Z,102082.81
2022-11-27T00:11:54.217Z,102087.22
2022-11-27T00:12:15.885Z,102080.16
2022-11-27T00:12:38.429Z,102080.16
2022-11-27T00:13:00.042Z,102076.66
2022-11-27T00:13:21.681Z,102084.59
2022-11-27T00:13:45.497Z,102072.25
2022-11-27T00:14:09.598Z,102081.09
2022-11-27T00:14:31.349Z,102074.03
2022-11-27T00:14:55.567Z,102081.97
2022-11-27T00:15:18.626Z,102071.38
2022-11-27T00:15:41.319Z,102070.50
2022-11-27T00:16:04.083Z,102063.44
2022-11-27T00:16:29.514Z,102079.34
2022-11-27T00:16:51.392Z,102076.69
2022-11-27T00:17:14.026Z,102075.81
2022-11-27T00:17:35.591Z,102082.84
2022-11-27T00:17:57.555Z,102081.09
2022-11-27T00:18:19.134Z,102066.94
2022-11-27T00:18:42.629Z,102074.91
2022-11-27T00:19:04.673Z,102059.03
2022-11-27T00:19:26.418Z,102069.59
2022-11-27T00:19:49.380Z,102067.84
2022-11-27T00:20:11.497Z,102074.91
2022-11-27T00:20:34.413Z,102086.38
2022-11-27T00:20:56.250Z,102074.91
2022-11-27T00:21:22.873Z,102067.84
2022-11-27T00:21:44.493Z,102072.25
2022-11-27T00:22:06.491Z,102075.78
2022-11-27T00:22:29.091Z,102066.13
2022-11-27T00:22:50.672Z,102068.78
2022-11-27T00:23:12.249Z,102068.78
2022-11-27T00:23:35.412Z,102059.94
2022-11-27T00:24:00.345Z,102061.69
2022-11-27T00:24:21.977Z,102069.63
2022-11-27T00:24:44.232Z,102073.16
2022-11-27T00:25:06.868Z,102065.19
2022-11-27T00:25:29.607Z,102070.47
2022-11-27T00:25:51.660Z,102066.97
2022-11-27T00:26:14.585Z,102078.41
2022-11-27T00:26:38.353Z,102075.81
2022-11-27T00:27:00.156Z,102077.56
2022-11-27T00:27:22.302Z,102075.78
2022-11-27T00:27:43.901Z,102075.78
2022-11-27T00:28:06.439Z,102082.88
2022-11-27T00:28:28.460Z,102074.88
2022-11-27T00:28:51.755Z,102070.47
2022-11-27T00:29:13.387Z,102081.94
2022-11-27T00:29:35.923Z,102084.59
2022-11-27T00:29:57.550Z,102074.00
2022-11-27T00:30:19.456Z,102084.63
2022-11-27T00:30:41.086Z,102081.94
2022-11-27T00:31:05.477Z,102074.88
2022-11-27T00:31:30.353Z,102077.59
2022-11-27T00:31:51.924Z,102086.38
2022-11-27T00:32:13.560Z,102079.31
2022-11-27T00:32:35.294Z,102074.03
2022-11-27T00:32:57.909Z,102075.78
2022-11-27T00:33:19.454Z,102074.91
2022-11-27T00:33:41.132Z,102077.59
2022-11-27T00:34:04.656Z,102077.53
2022-11-27T00:34:27.308Z,102078.47
2022-11-27T00:34:48.969Z,102069.66
2022-11-27T00:35:10.747Z,102079.34
2022-11-27T00:35:32.476Z,102070.50
2022-11-27T00:35:55.023Z,102068.72
2022-11-27T00:36:16.635Z,102072.25
2022-11-27T00:36:39.248Z,102079.31
2022-11-27T00:37:02.995Z,102074.88
2022-11-27T00:37:24.567Z,102066.06
2022-11-27T00:37:46.159Z,102070.47
2022-11-27T00:38:07.838Z,102072.25
2022-11-27T00:38:32.528Z,102064.31
2022-11-27T00:38:57.710Z,102072.25
2022-11-27T00:39:19.566Z,102068.75
2022-11-27T00:39:42.050Z,102076.69
2022-11-27T00:40:04.270Z,102072.25
2022-11-27T00:40:25.934Z,102072.25
2022-11-27T00:40:48.901Z,102071.41
2022-11-27T00:41:14.287Z,102066.94
2022-11-27T00:41:35.934Z,102065.19
2022-11-27T00:41:57.540Z,102077.53
2022-11-27T00:42:20.150Z,102081.06
2022-11-27T00:42:41.766Z,102070.56
2022-11-27T00:43:03.403Z,102074.06
2022-11-27T00:43:25.060Z,102071.41
2022-11-27T00:43:48.034Z,102063.47
2022-11-27T00:44:11.412Z,102072.28
2022-11-27T00:44:34.322Z,102073.13
2022-11-27T00:44:55.940Z,102065.19
2022-11-27T00:45:18.550Z,102067.03
2022-11-27T00:45:40.131Z,102064.38
2022-11-27T00:46:02.071Z,102074.06
2022-11-27T00:46:28.790Z,102062.59
2022-11-27T00:46:51.556Z,102061.75
2022-11-27T00:47:13.226Z,102070.56
2022-11-27T00:47:34.773Z,102051.13
2022-11-27T00:47:56.335Z,102066.13
2022-11-27T00:48:17.953Z,102062.63
2022-11-27T00:48:40.721Z,102067.03
2022-11-27T00:49:03.863Z,102061.75
2022-11-27T00:49:25.521Z,102058.19
2022-11-27T00:49:48.047Z,102064.34
2022-11-27T00:50:10.156Z,102054.63
2022-11-27T00:50:32.284Z,102065.22
2022-11-27T00:50:58.880Z,102045.81
2022-11-27T00:51:23.405Z,102058.13
2022-11-27T00:51:45.050Z,102063.44
2022-11-27T00:52:06.629Z,102054.59
2022-11-27T00:52:29.175Z,102061.66
2022-11-27T00:52:50.783Z,102059.91
2022-11-27T00:53:12.371Z,102051.03
2022-11-27T00:53:34.414Z,102055.47
2022-11-27T00:53:56.567Z,102052.81
2022-11-27T00:54:22.588Z,102064.31
2022-11-27T00:54:44.371Z,102053.72
2022-11-27T00:55:07.171Z,102053.75
2022-11-27T00:55:28.791Z,102056.38
2022-11-27T00:55:51.336Z,102046.69
2022-11-27T00:56:16.352Z,102054.63
2022-11-27T00:56:39.393Z,102055.50
2022-11-27T00:57:02.070Z,102055.50
2022-11-27T00:57:24.998Z,102055.50
2022-11-27T00:57:46.604Z,102054.59
2022-11-27T00:58:08.397Z,102055.50
2022-11-27T00:58:31.431Z,102049.31
2022-11-27T00:58:54.248Z,102053.69
2022-11-27T00:59:17.152Z,102066.06
2022-11-27T00:59:39.732Z,102057.28
2022-11-27T01:00:01.378Z,102048.44
2022-11-27T01:00:23.321Z,102046.69
2022-11-27T01:00:44.959Z,102058.13
2022-11-27T01:01:07.735Z,102052.84
2022-11-27T01:01:32.114Z,102053.75
2022-11-27T01:01:53.752Z,102058.16
2022-11-27T01:02:15.393Z,102048.47
2022-11-27T01:02:37.110Z,102059.03
2022-11-27T01:02:59.854Z,102053.75
2022-11-27T01:03:21.758Z,102048.47
2022-11-27T01:03:43.435Z,102055.50
2022-11-27T01:04:07.070Z,102040.56
2022-11-27T01:04:30.237Z,102052.03
2022-11-27T01:04:51.863Z,102049.38
2022-11-27T01:05:13.577Z,102049.34
2022-11-27T01:05:36.683Z,102051.09
2022-11-27T01:06:04.417Z,102059.91
2022-11-27T01:06:27.390Z,102044.03
2022-11-27T01:06:48.963Z,102042.28
2022-11-27T01:07:11.595Z,102043.22
2022-11-27T01:07:33.313Z,102020.28
2022-11-27T01:07:55.088Z,102054.66
2022-11-27T01:08:16.763Z,102043.19
2022-11-27T01:08:38.638Z,102042.31
2022-11-27T01:09:01.946Z,102051.13
2022-11-27T01:09:23.850Z,102049.34
2022-11-27T01:09:45.454Z,102049.38
2022-11-27T01:10:08.351Z,102048.44
2022-11-27T01:10:31.018Z,102044.94
2022-11-27T01:10:55.042Z,102041.47
2022-11-27T01:11:20.358Z,102051.16
2022-11-27T01:11:42.323Z,102048.50
2022-11-27T01:12:05.619Z,102046.72
2022-11-27T01:12:27.170Z,102045.84
2022-11-27T01:12:49.763Z,102030.88
2022-11-27T01:13:50.098Z,102047.63
2022-11-27T01:14:16.202Z,102048.50
2022-11-27T01:14:47.398Z,102050.28
2022-11-27T01:15:11.486Z,102044.09
2022-11-27T01:15:34.692Z,102046.75
2022-11-27T01:16:01.111Z,102055.56
2022-11-27T01:16:27.677Z,102040.56
2022-11-27T01:16:52.187Z,102052.94
2022-11-27T01:17:14.918Z,102047.63
2022-11-27T01:17:37.735Z,102055.56
2022-11-27T01:18:01.404Z,102046.75
2022-11-27T01:18:23.923Z,102059.09
2022-11-27T01:18:50.062Z,102057.34
2022-11-27T01:19:16.269Z,102053.78
2022-11-27T01:19:39.123Z,102053.81
2022-11-27T01:20:00.760Z,102051.19
2022-11-27T01:20:22.817Z,102050.31
2022-11-27T01:20:46.309Z,102056.50
2022-11-27T01:21:11.262Z,102049.41
2022-11-27T01:21:35.444Z,102052.09
2022-11-27T01:21:58.275Z,102052.06
2022-11-27T01:22:28.671Z,102048.53
2022-11-27T01:22:50.368Z,102041.47
2022-11-27T01:23:13.332Z,102049.41
2022-11-27T01:23:39.473Z,102042.34
2022-11-27T01:24:02.482Z,102029.13
2022-11-27T01:24:24.647Z,102041.47
2022-11-27T01:24:47.428Z,102046.75
2022-11-27T01:25:11.110Z,102050.25
2022-11-27T01:25:34.386Z,102048.50
2022-11-27T01:25:56.002Z,102051.19
2022-11-27T01:26:19.226Z,102040.59
2022-11-27T01:26:42.009Z,102042.34
2022-11-27T01:27:06.246Z,102026.47
2022-11-27T01:27:30.049Z,102043.22
2022-11-27T01:27:54.116Z,102046.72
2022-11-27T01:28:19.784Z,102048.50
2022-11-27T01:28:48.188Z,102047.59
2022-11-27T01:29:14.627Z,102048.47
2022-11-27T01:29:57.304Z,102042.31
2022-11-27T01:30:30.158Z,102049.34
2022-11-27T01:30:59.281Z,102057.25
2022-11-27T01:31:25.098Z,102050.22
2022-11-27T01:31:53.301Z,102039.63
2022-11-27T01:32:31.405Z,102056.38
2022-11-27T01:33:00.562Z,102048.47
2022-11-27T01:33:44.346Z,102049.34
2022-11-27T01:34:15.135Z,102054.66
2022-11-27T01:34:38.197Z,102051.13
2022-11-27T01:35:00.186Z,102052.94
2022-11-27T01:35:21.762Z,102052.06
2022-11-27T01:35:43.488Z,102037.91
2022-11-27T01:36:07.614Z,102045.84
2022-11-27T01:36:31.946Z,102046.75
2022-11-27T01:36:53.622Z,102043.22
2022-11-27T01:37:15.196Z,102049.38
2022-11-27T01:37:36.758Z,102046.72
2022-11-27T01:37:59.417Z,102046.72
2022-11-27T01:38:21.080Z,102044.06
2022-11-27T01:38:43.132Z,102052.00
2022-11-27T01:39:05.445Z,102032.59
2022-11-27T01:39:28.042Z,102048.50
2022-11-27T01:39:49.614Z,102052.91
2022-11-27T01:40:11.898Z,102044.06
2022-11-27T01:40:33.713Z,102052.00
2022-11-27T01:41:00.243Z,102035.25
2022-11-27T01:41:25.826Z,102043.16
2022-11-27T01:41:48.508Z,102046.72
2022-11-27T01:42:11.922Z,102045.81
2022-11-27T01:42:33.500Z,102039.66
2022-11-27T01:42:55.114Z,102042.34
2022-11-27T01:43:16.846Z,102043.19
2022-11-27T01:43:42.831Z,102045.84
2022-11-27T01:44:43.166Z,102050.28
2022-11-27T01:45:10.549Z,102044.97
2022-11-27T01:45:32.263Z,102037.09
2022-11-27T01:45:53.847Z,102045.00
2022-11-27T01:46:26.522Z,102037.94
2022-11-27T01:46:50.323Z,102049.38
2022-11-27T01:47:15.295Z,102036.19
2022-11-27T01:47:43.720Z,102045.00
2022-11-27T01:48:06.442Z,102047.63
2022-11-27T01:48:28.059Z,102037.91
2022-11-27T01:48:51.593Z,102035.25
2022-11-27T01:49:26.096Z,102036.16
2022-11-27T01:49:51.439Z,102037.91
2022-11-27T01:50:19.011Z,102037.06
2022-11-27T01:50:40.753Z,102039.72
2022-11-27T01:51:03.455Z,102038.84
2022-11-27T01:51:25.473Z,102029.13
2022-11-27T01:51:52.036Z,102037.06
2022-11-27T01:52:16.908Z,102030.91
2022-11-27T01:52:44.392Z,102033.53
2022-11-27T01:53:12.820Z,102040.59
2022-11-27T01:53:34.749Z,102032.66
2022-11-27T01:53:58.262Z,102037.97
2022-11-27T01:54:24.834Z,102037.06
2022-11-27T01:54:51.616Z,102024.72
2022-11-27T01:55:20.235Z,102034.41
2022-11-27T01:55:47.423Z,102038.81
2022-11-27T01:56:09.934Z,102039.69
2022-11-27T01:56:32.557Z,102035.28
2022-11-27T01:56:56.944Z,102043.22
2022-11-27T01:57:23.492Z,102031.75
2022-11-27T01:57:48.582Z,102029.97
2022-11-27T01:58:14.385Z,102023.81
2022-11-27T01:58:36.624Z,102036.19
2022-11-27T01:58:59.285Z,102030.03
2022-11-27T01:59:21.696Z,102028.25
2022-11-27T01:59:44.200Z,102027.34
2022-11-27T02:00:13.018Z,102035.28
2022-11-27T02:00:34.648Z,102027.34
2022-11-27T02:00:56.509Z,102031.75
2022-11-27T02:01:18.278Z,102026.44
2022-11-27T02:01:40.983Z,102028.22
2022-11-27T02:02:03.625Z,102026.44
2022-11-27T02:02:25.786Z,102024.69
2022-11-27T02:02:48.085Z,102023.81
2022-11-27T02:03:10.925Z,102016.72
2022-11-27T02:03:32.988Z,102023.78
2022-11-27T02:03:57.941Z,102022.91
2022-11-27T02:04:19.626Z,102026.44
2022-11-27T02:04:41.509Z,102019.38
2022-11-27T02:05:04.577Z,102013.22
2022-11-27T02:05:38.939Z,102020.25
2022-11-27T02:06:35.872Z,102006.16
2022-11-27T02:07:17.819Z,102004.41
2022-11-27T02:09:26.458Z,102009.66
2022-11-27T02:09:59.082Z,102008.84
2022-11-27T02:10:47.044Z,102011.47
2022-11-27T02:12:50.285Z,102008.84
2022-11-27T02:13:33.448Z,102007.97
2022-11-27T02:14:10.720Z,102015.91
2022-11-27T02:14:47.761Z,102012.34
2022-11-27T02:15:28.925Z,102006.19
2022-11-27T02:16:02.175Z,102017.66
2022-11-27T02:16:31.695Z,102013.25
2022-11-27T02:17:01.485Z,102007.94
2022-11-27T02:17:30.673Z,102002.66
2022-11-27T02:18:01.950Z,102017.66
2022-11-27T02:18:30.735Z,102007.97
2022-11-27T02:18:58.840Z,102007.97
2022-11-27T02:19:31.340Z,102005.31
2022-11-27T02:20:13.076Z,101999.13
2022-11-27T02:20:42.987Z,102001.78
2022-11-27T02:21:14.834Z,102007.06
2022-11-27T02:21:44.465Z,102001.78
2022-11-27T02:22:14.467Z,101997.38
2022-11-27T02:22:52.362Z,102002.66
2022-11-27T02:23:27.171Z,102002.66
2022-11-27T02:24:26.310Z,101963.03
2022-11-27T02:24:54.486Z,101992.06
2022-11-27T02:25:29.273Z,101993.84
2022-11-27T02:26:07.345Z,101999.13
2022-11-27T02:27:21.175Z,101990.31
2022-11-27T02:28:07.251Z,101985.88
2022-11-27T02:28:51.759Z,101984.09
2022-11-27T02:29:23.752Z,101987.63
2022-11-27T02:29:59.891Z,101984.09
2022-11-27T02:30:39.405Z,101988.47
2022-11-27T02:31:22.149Z,101984.97
2022-11-27T02:31:59.770Z,101987.66
2022-11-27T02:32:37.635Z,101989.41
2022-11-27T02:33:25.213Z,101986.72
2022-11-27T02:33:53.961Z,101990.28
2022-11-27T02:34:24.338Z,101988.47
2022-11-27T02:34:50.854Z,101997.31
2022-11-27T02:35:17.867Z,101984.09
2022-11-27T02:35:47.030Z,101998.22
2022-11-27T02:36:14.109Z,101993.81
2022-11-27T02:36:37.964Z,101992.91
2022-11-27T02:37:03.059Z,101999.97
2022-11-27T02:37:32.602Z,101990.28
2022-11-27T02:38:00.080Z,101988.53
2022-11-27T02:38:28.067Z,101985.03
2022-11-27T02:38:57.519Z,101991.19
2022-11-27T02:39:24.528Z,101986.78
2022-11-27T02:39:53.943Z,101992.03
2022-11-27T02:40:22.657Z,101994.69
2022-11-27T02:40:52.365Z,101983.25
2022-11-27T02:41:19.716Z,101986.78
2022-11-27T02:41:48.513Z,101988.56
2022-11-27T02:42:16.589Z,101985.91
2022-11-27T02:42:42.533Z,101991.16
2022-11-27T02:43:10.720Z,101993.81
2022-11-27T02:43:36.816Z,101987.66
2022-11-27T02:44:00.449Z,101992.94
2022-11-27T02:44:26.072Z,101984.13
2022-11-27T02:44:52.766Z,101985.91
2022-11-27T02:45:18.747Z,101982.38
2022-11-27T02:45:43.451Z,101970.03
2022-11-27T02:46:09.067Z,101971.81
2022-11-27T02:46:30.915Z,101985.00
2022-11-27T02:46:54.329Z,101981.50
2022-11-27T02:47:16.094Z,101983.25
2022-11-27T02:47:40.973Z,101985.03
2022-11-27T02:48:04.193Z,101968.28
2022-11-27T02:48:33.094Z,101980.63
2022-11-27T02:48:58.702Z,101983.25
2022-11-27T02:49:21.697Z,101980.59
2022-11-27T02:49:45.685Z,101984.13
2022-11-27T02:50:11.331Z,101982.38
2022-11-27T02:50:36.214Z,101980.63
2022-11-27T02:50:58.981Z,101967.44
2022-11-27T02:51:25.368Z,101970.06
2022-11-27T02:51:54.631Z,101972.72
2022-11-27T02:52:20.202Z,101978.00
2022-11-27T02:52:44.252Z,101963.00
2022-11-27T02:53:09.502Z,101957.72
2022-11-27T02:53:33.848Z,101970.06
2022-11-27T02:53:59.892Z,101966.53
2022-11-27T02:54:25.980Z,101966.53
2022-11-27T02:54:51.933Z,101968.28
2022-11-27T02:55:18.857Z,101948.00
2022-11-27T02:55:42.410Z,101955.06
2022-11-27T02:56:07.356Z,101957.72
2022-11-27T02:56:31.227Z,101936.53
2022-11-27T02:56:55.895Z,101957.69
2022-11-27T02:57:20.466Z,101954.16
2022-11-27T02:57:43.926Z,101951.50
2022-11-27T02:58:13.127Z,101951.50
2022-11-27T02:58:38.290Z,101955.94
2022-11-27T02:59:03.183Z,101943.59
2022-11-27T02:59:30.319Z,101955.91
2022-11-27T02:59:55.956Z,101955.03
2022-11-27T03:00:19.408Z,101954.16
2022-11-27T03:00:42.114Z,101951.50
2022-11-27T03:01:06.117Z,101932.13
2022-11-27T03:01:31.313Z,101940.06
2022-11-27T03:01:57.862Z,101947.09
2022-11-27T03:02:23.534Z,101952.41
2022-11-27T03:02:52.952Z,101942.72
2022-11-27T03:03:19.729Z,101948.88
2022-11-27T03:03:45.392Z,101918.06
2022-11-27T03:04:11.208Z,101931.28
2022-11-27T03:04:37.748Z,101950.69
2022-11-27T03:05:03.452Z,101941.84
2022-11-27T03:05:30.570Z,101940.09
2022-11-27T03:05:54.632Z,101945.41
2022-11-27T03:06:20.130Z,101948.03
2022-11-27T03:06:46.946Z,101944.50
2022-11-27T03:07:14.731Z,101945.41
2022-11-27T03:07:41.459Z,101926.88
2022-11-27T03:08:08.005Z,101942.75
2022-11-27T03:08:33.403Z,101936.56
2022-11-27T03:09:00.491Z,101937.47
2022-11-27T03:09:27.743Z,101933.91
2022-11-27T03:09:54.193Z,101934.78
2022-11-27T03:10:20.488Z,101947.16
2022-11-27T03:10:48.209Z,101938.34
2022-11-27T03:11:13.227Z,101930.41
2022-11-27T03:11:36.343Z,101938.31
2022-11-27T03:11:58.822Z,101937.41
2022-11-27T03:12:20.713Z,101944.50
2022-11-27T03:12:43.283Z,101939.22
2022-11-27T03:13:04.978Z,101932.13
2022-11-27T03:13:28.020Z,101931.28
2022-11-27T03:13:53.866Z,101938.34
2022-11-27T03:14:17.343Z,101933.06
2022-11-27T03:14:42.074Z,101937.47
2022-11-27T03:15:04.775Z,101931.28
2022-11-27T03:15:33.221Z,101937.47
2022-11-27T03:16:03.646Z,101939.25
2022-11-27T03:16:34.377Z,101932.19
2022-11-27T03:17:05.550Z,101937.44
2022-11-27T03:17:40.670Z,101933.06
2022-11-27T03:18:13.560Z,101939.22
2022-11-27T03:18:39.441Z,101925.97
2022-11-27T03:19:11.584Z,101933.94
2022-11-27T03:19:42.859Z,101933.94
2022-11-27T03:20:12.016Z,101937.44
2022-11-27T03:20:40.543Z,101916.31
2022-11-27T03:21:09.258Z,101934.81
2022-11-27T03:21:37.812Z,101940.97
2022-11-27T03:22:01.530Z,101933.97
2022-11-27T03:22:23.301Z,101928.66
2022-11-27T03:22:46.161Z,101930.41
2022-11-27T03:23:07.776Z,101935.69
2022-11-27T03:23:29.579Z,101935.69
2022-11-27T03:23:51.483Z,101921.63
2022-11-27T03:24:14.387Z,101927.78
2022-11-27T03:24:36.209Z,101932.19
2022-11-27T03:24:59.034Z,101937.44
2022-11-27T03:25:21.730Z,101931.31
2022-11-27T03:25:43.391Z,101932.16
2022-11-27T03:26:05.405Z,101925.13
2022-11-27T03:26:27.324Z,101930.41
2022-11-27T03:26:50.255Z,101930.44
2022-11-27T03:27:15.269Z,101931.28
2022-11-27T03:27:43.367Z,101929.53
2022-11-27T03:28:10.465Z,101938.34
2022-11-27T03:28:33.146Z,101933.09
2022-11-27T03:28:56.968Z,101925.16
2022-11-27T03:29:23.368Z,101925.13
2022-11-27T03:29:50.827Z,101929.56
2022-11-27T03:30:15.304Z,101923.38
2022-11-27T03:30:37.006Z,101921.63
2022-11-27T03:30:58.821Z,101926.91
2022-11-27T03:31:23.604Z,101908.41
2022-11-27T03:31:46.447Z,101933.94
2022-11-27T03:32:08.557Z,101920.75
2022-11-27T03:32:38.035Z,101935.72
2022-11-27T03:33:03.850Z,101921.59
2022-11-27T03:33:25.702Z,101930.41
2022-11-27T03:33:47.551Z,101914.56
2022-11-27T03:34:09.195Z,101925.13
2022-11-27T03:34:32.644Z,101930.41
2022-11-27T03:34:55.313Z,101913.69
2022-11-27T03:35:19.937Z,101925.13
2022-11-27T03:35:42.563Z,101926.00
2022-11-27T03:36:11.957Z,101929.53
2022-11-27T03:36:33.570Z,101931.31
2022-11-27T03:36:55.284Z,101928.66
2022-11-27T03:37:18.049Z,101926.88
2022-11-27T03:37:39.901Z,101930.41
2022-11-27T03:38:01.519Z,101924.25
2022-11-27T03:38:23.198Z,101926.03
2022-11-27T03:38:47.944Z,101926.03
2022-11-27T03:39:09.783Z,101926.00
2022-11-27T03:39:32.234Z,101932.19
2022-11-27T03:39:54.230Z,101891.63
2022-11-27T03:40:18.788Z,101920.75
2022-11-27T03:40:49.258Z,101917.19
2022-11-27T03:41:30.082Z,101921.59
2022-11-27T03:42:03.479Z,101924.28
2022-11-27T03:42:29.266Z,101928.66
2022-11-27T03:42:59.165Z,101926.03
2022-11-27T03:43:28.667Z,101929.56
2022-11-27T03:43:58.323Z,101911.06
2022-11-27T03:44:26.007Z,101923.41
2022-11-27T03:44:59.610Z,101926.03
2022-11-27T03:45:30.215Z,101926.88
2022-11-27T03:45:59.129Z,101925.16
2022-11-27T03:46:29.620Z,101913.69
2022-11-27T03:47:05.195Z,101926.91
2022-11-27T03:47:42.270Z,101926.03
2022-11-27T03:48:27.402Z,101930.41
2022-11-27T03:48:55.464Z,101927.78
2022-11-27T03:49:26.104Z,101928.66
2022-11-27T03:50:02.206Z,101928.63
2022-11-27T03:50:38.066Z,101932.16
2022-11-27T03:51:13.049Z,101926.91
2022-11-27T03:51:46.635Z,101926.00
2022-11-27T03:52:19.044Z,101918.06
2022-11-27T03:52:50.167Z,101930.41
2022-11-27T03:53:19.473Z,101927.78
2022-11-27T03:53:51.554Z,101929.53
2022-11-27T03:54:24.722Z,101896.06
2022-11-27T03:54:57.538Z,101921.59
2022-11-27T03:55:28.624Z,101917.19
2022-11-27T03:56:06.815Z,101915.41
2022-11-27T03:56:38.130Z,101916.31
2022-11-27T03:57:06.343Z,101914.56
2022-11-27T03:57:41.770Z,101924.25
2022-11-27T03:58:06.825Z,101918.94
2022-11-27T03:58:34.237Z,101924.25
2022-11-27T03:59:01.987Z,101918.06
2022-11-27T03:59:29.329Z,101919.84
2022-11-27T04:00:02.880Z,101911.91
2022-11-27T04:00:30.269Z,101921.59
2022-11-27T04:00:53.715Z,101908.38
2022-11-27T04:01:20.560Z,101889.91
2022-11-27T04:01:42.509Z,101922.47
2022-11-27T04:02:04.217Z,101917.19
2022-11-27T04:02:39.164Z,101922.50
2022-11-27T04:03:23.515Z,101926.91
2022-11-27T04:03:48.355Z,101924.28
2022-11-27T04:04:10.056Z,101920.72
2022-11-27T04:04:36.139Z,101929.53
2022-11-27T04:05:26.671Z,101925.13
2022-11-27T04:05:50.913Z,101928.66
2022-11-27T04:06:16.405Z,101921.63
2022-11-27T04:06:38.297Z,101929.53
2022-11-27T04:06:59.940Z,101919.84
2022-11-27T04:07:55.434Z,101911.03
2022-11-27T04:08:19.734Z,101918.09
2022-11-27T04:08:50.509Z,101926.91
2022-11-27T04:09:13.231Z,101922.47
2022-11-27T04:09:34.862Z,101918.97
2022-11-27T04:11:39.128Z,101911.94
2022-11-27T04:12:06.402Z,101909.28
2022-11-27T04:12:37.607Z,101911.91
2022-11-27T04:13:04.808Z,101904.88
2022-11-27T04:13:58.530Z,101905.75
2022-11-27T04:14:32.862Z,101909.28
2022-11-27T04:15:02.665Z,101911.91
2022-11-27T04:15:36.315Z,101907.50
2022-11-27T04:16:08.491Z,101910.16
2022-11-27T04:17:02.591Z,101914.53
2022-11-27T04:17:25.679Z,101901.38
2022-11-27T04:17:56.571Z,101904.88
2022-11-27T04:19:04.227Z,101890.78
2022-11-27T04:19:42.532Z,101911.03
2022-11-27T04:20:12.635Z,101902.22
2022-11-27T04:20:38.218Z,101907.50
2022-11-27T04:20:59.853Z,101915.44
2022-11-27T04:21:21.525Z,101907.50
2022-11-27T04:21:44.072Z,101908.38
2022-11-27T04:22:05.688Z,101911.03
2022-11-27T04:22:27.291Z,101915.44
2022-11-27T04:22:49.004Z,101911.03
2022-11-27T04:23:11.613Z,101911.00
2022-11-27T04:23:33.158Z,101892.53
2022-11-27T04:23:54.785Z,101907.50
2022-11-27T04:24:16.491Z,101911.03
2022-11-27T04:24:38.227Z,101909.25
2022-11-27T04:25:00.927Z,101909.25
2022-11-27T04:25:22.834Z,101906.63
2022-11-27T04:25:44.469Z,101888.97
2022-11-27T04:26:06.095Z,101909.28
2022-11-27T04:26:28.615Z,101909.28
2022-11-27T04:26:50.144Z,101900.44
2022-11-27T04:27:11.783Z,101899.59
2022-11-27T04:27:33.622Z,101894.28
2022-11-27T04:27:56.368Z,101905.72
2022-11-27T04:28:18.183Z,101907.50
2022-11-27T04:28:39.788Z,101899.56
2022-11-27T04:29:01.413Z,101908.38
2022-11-27T04:29:23.013Z,101900.44
2022-11-27T04:29:45.604Z,101903.13
2022-11-27T04:30:09.749Z,101904.00
2022-11-27T04:30:31.503Z,101897.81
2022-11-27T04:30:54.702Z,101909.25
2022-11-27T04:31:19.382Z,101906.63
2022-11-27T04:31:55.423Z,101900.47
2022-11-27T04:32:26.689Z,101896.94
2022-11-27T04:32:59.293Z,101899.56
2022-11-27T04:33:23.147Z,101883.69
2022-11-27T04:33:57.140Z,101888.09
2022-11-27T04:34:24.731Z,101889.84
2022-11-27T04:35:05.613Z,101876.69
2022-11-27T04:35:38.845Z,101881.97
2022-11-27T04:36:05.909Z,101881.94
2022-11-27T04:36:39.024Z,101870.50
2022-11-27T04:37:11.704Z,101871.38
2022-11-27T04:37:57.287Z,101875.75
2022-11-27T04:38:35.333Z,101869.63
2022-11-27T04:39:29.938Z,101866.09
2022-11-27T04:40:04.087Z,101870.50
2022-11-27T04:40:33.869Z,101861.69
2022-11-27T04:41:06.663Z,101869.63
2022-11-27T04:41:29.659Z,101861.72
2022-11-27T04:41:51.264Z,101863.47
2022-11-27T04:42:13.790Z,101857.31
2022-11-27T04:42:35.409Z,101855.53
2022-11-27T04:42:57.029Z,101860.78
2022-11-27T04:43:18.943Z,101862.56
2022-11-27T04:43:40.603Z,101862.56
2022-11-27T04:44:03.147Z,101859.94
2022-11-27T04:44:24.755Z,101857.28
2022-11-27T04:44:46.293Z,101856.41
2022-11-27T04:45:10.470Z,101854.69
2022-11-27T04:45:33.117Z,101852.03
2022-11-27T04:45:54.673Z,101859.03
2022-11-27T04:46:16.395Z,101852.84
2022-11-27T04:46:38.221Z,101855.56
2022-11-27T04:47:00.933Z,101851.09
2022-11-27T04:47:22.651Z,101851.16
2022-11-27T04:47:44.339Z,101850.22
2022-11-27T04:48:06.422Z,101853.78
2022-11-27T04:48:28.964Z,101850.25
2022-11-27T04:48:50.530Z,101844.09
2022-11-27T04:49:12.378Z,101856.41
2022-11-27T04:49:34.047Z,101852.00
2022-11-27T04:49:56.694Z,101852.88
2022-11-27T04:50:18.536Z,101852.00
2022-11-27T04:50:40.137Z,101847.59
2022-11-27T04:51:02.668Z,101847.59
2022-11-27T04:51:24.712Z,101848.47
2022-11-27T04:51:46.380Z,101849.38
2022-11-27T04:52:08.065Z,101840.56
2022-11-27T04:52:30.630Z,101843.19
2022-11-27T04:52:52.265Z,101842.31
2022-11-27T04:53:13.878Z,101845.84
2022-11-27T04:53:35.443Z,101837.03
2022-11-27T04:53:58.374Z,101847.59
2022-11-27T04:54:20.059Z,101846.72
2022-11-27T04:54:41.861Z,101841.44
2022-11-27T04:55:03.909Z,101830.88
2022-11-27T04:55:25.601Z,101842.31
2022-11-27T04:55:48.222Z,101854.66
2022-11-27T04:56:09.873Z,101848.50
2022-11-27T04:56:31.481Z,101849.38
2022-11-27T04:56:53.137Z,101847.63
2022-11-27T04:57:14.741Z,101848.50
2022-11-27T04:57:37.322Z,101841.44
2022-11-27T04:57:58.922Z,101840.56
2022-11-27T04:58:20.479Z,101840.56
2022-11-27T04:58:43.022Z,101836.16
2022-11-27T04:59:05.047Z,101831.75
2022-11-27T04:59:26.662Z,101835.25
2022-11-27T04:59:48.273Z,101837.00